createdAt,value
2019-04-22T00:00:40.758Z,6.70
2019-04-22T00:03:15.101Z,6.30
2019-04-22T00:06:06.189Z,5.80
2019-04-22T00:08:45.729Z,6.80
2019-04-22T00:11:25.789Z,6.07
2019-04-22T00:13:52.997Z,6.80
2019-04-22T00:16:34.494Z,6.07
2019-04-22T00:24:05.881Z,6.40
2019-04-22T00:26:45.870Z,6.00
2019-04-22T00:29:39.440Z,5.80
2019-04-22T00:31:52.871Z,5.60
2019-04-22T00:34:29.401Z,5.10
2019-04-22T00:37:00.555Z,6.53
2019-04-22T00:39:44.695Z,5.60
2019-04-22T00:42:18.036Z,6.30
2019-04-22T00:44:46.996Z,5.83
2019-04-22T00:47:23.414Z,6.20
2019-04-22T00:52:32.472Z,5.80
2019-04-22T00:55:10.103Z,5.77
2019-04-22T00:57:32.435Z,5.93
2019-04-22T01:00:05.528Z,5.47
2019-04-22T01:02:46.219Z,6.67
2019-04-22T01:05:21.415Z,5.43
2019-04-22T01:07:49.917Z,5.40
2019-04-22T01:10:26.360Z,5.67
2019-04-22T01:12:57.150Z,5.90
2019-04-22T01:15:30.523Z,5.73
2019-04-22T01:18:02.427Z,4.70
2019-04-22T01:21:00.942Z,5.60
2019-04-22T01:23:05.695Z,5.30
2019-04-22T01:25:42.096Z,5.27
2019-04-22T01:28:12.536Z,5.30
2019-04-22T01:30:40.671Z,5.87
2019-04-22T01:33:12.785Z,4.90
2019-04-22T01:36:00.362Z,5.60
2019-04-22T01:38:31.418Z,5.83
2019-04-22T01:41:16.859Z,5.17
2019-04-22T01:43:54.487Z,5.00
2019-04-22T01:46:18.425Z,5.63
2019-04-22T01:48:57.698Z,5.70
2019-04-22T01:51:39.305Z,5.40
2019-04-22T01:54:04.142Z,4.30
2019-04-22T01:56:33.338Z,5.23
2019-04-22T01:58:59.220Z,5.10
2019-04-22T02:01:43.634Z,5.70
2019-04-22T02:04:17.605Z,5.83
2019-04-22T02:06:48.548Z,5.70
2019-04-22T02:09:24.044Z,5.97
2019-04-22T02:11:56.927Z,6.17
2019-04-22T02:14:31.095Z,5.80
2019-04-22T02:17:01.296Z,5.13
2019-04-22T02:21:59.637Z,4.77
2019-04-22T02:24:53.822Z,5.60
2019-04-22T02:27:17.682Z,4.83
2019-04-22T02:29:50.356Z,5.83
2019-04-22T02:32:38.899Z,5.70
2019-04-22T02:35:07.663Z,4.97
2019-04-22T02:40:03.438Z,5.20
2019-04-22T02:42:32.332Z,5.10
2019-04-22T02:45:26.346Z,5.90
2019-04-22T02:47:58.735Z,4.83
2019-04-22T02:50:12.653Z,4.90
2019-04-22T02:52:47.279Z,5.30
2019-04-22T02:55:23.424Z,4.90
2019-04-22T02:58:16.495Z,4.87
2019-04-22T03:00:37.850Z,5.23
2019-04-22T03:05:47.057Z,4.67
2019-04-22T03:08:15.088Z,4.63
2019-04-22T03:16:04.548Z,5.03
2019-04-22T03:18:29.091Z,4.97
2019-04-22T03:21:07.373Z,5.00
2019-04-22T03:28:46.258Z,4.13
2019-04-22T03:32:36.092Z,5.07
2019-04-22T03:37:20.730Z,4.30
2019-04-22T03:40:00.060Z,5.00
2019-04-22T03:42:09.904Z,5.03
2019-04-22T03:50:04.155Z,4.90
2019-04-22T03:52:22.175Z,4.67
2019-04-22T04:00:19.866Z,4.43
2019-04-22T04:05:24.283Z,5.07
2019-04-22T04:10:30.163Z,5.23
2019-04-22T04:13:03.551Z,4.80
2019-04-22T04:15:24.889Z,4.50
2019-04-22T04:17:55.005Z,5.27
2019-04-22T04:28:29.497Z,5.00
2019-04-22T04:30:48.793Z,4.53
2019-04-22T04:35:58.626Z,4.30
2019-04-22T04:38:28.740Z,5.30
2019-04-22T04:41:10.811Z,4.57
2019-04-22T04:46:13.880Z,5.10
2019-04-22T04:51:33.221Z,4.87
2019-04-22T04:54:15.506Z,5.60
2019-04-22T04:56:30.370Z,4.70
2019-04-22T04:59:05.975Z,5.73
2019-04-22T05:01:30.872Z,4.97
2019-04-22T05:04:05.029Z,5.53
2019-04-22T05:06:43.283Z,5.43
2019-04-22T05:09:22.509Z,5.00
2019-04-22T05:12:03.562Z,4.60
2019-04-22T05:14:24.883Z,4.57
2019-04-22T05:16:51.517Z,5.10
2019-04-22T05:19:20.277Z,4.50
2019-04-22T05:21:56.575Z,4.13
2019-04-22T05:24:28.298Z,4.30
2019-04-22T05:26:57.466Z,4.20
2019-04-22T05:29:41.997Z,5.03
2019-04-22T05:32:03.110Z,5.00
2019-04-22T05:34:34.602Z,4.93
2019-04-22T05:37:10.825Z,4.03
2019-04-22T05:39:42.458Z,4.70
2019-04-22T05:42:14.046Z,3.90
2019-04-22T05:44:52.903Z,4.63
2019-04-22T05:47:22.493Z,4.00
2019-04-22T05:49:55.162Z,4.67
2019-04-22T05:52:25.594Z,4.57
2019-04-22T05:55:02.508Z,4.00
2019-04-22T05:57:34.415Z,4.70
2019-04-22T06:02:56.841Z,4.00
2019-04-22T06:05:16.651Z,3.47
2019-04-22T06:07:45.651Z,4.10
2019-04-22T06:10:32.937Z,3.80
2019-04-22T06:12:57.836Z,3.70
2019-04-22T06:15:44.176Z,3.80
2019-04-22T06:18:17.613Z,4.00
2019-04-22T06:20:53.140Z,3.47
2019-04-22T06:23:27.455Z,3.43
2019-04-22T06:28:35.227Z,3.80
2019-04-22T06:33:34.712Z,4.07
2019-04-22T06:36:08.822Z,3.30
2019-04-22T06:38:46.274Z,3.60
2019-04-22T06:41:24.847Z,3.53
2019-04-22T06:43:56.323Z,3.30
2019-04-22T06:46:27.462Z,3.40
2019-04-22T06:48:55.169Z,3.47
2019-04-22T06:51:32.459Z,2.80
2019-04-22T06:54:02.968Z,3.17
2019-04-22T06:56:35.523Z,3.20
2019-04-22T06:59:14.710Z,3.40
2019-04-22T07:01:42.301Z,3.30
2019-04-22T07:04:17.102Z,3.67
2019-04-22T07:06:58.103Z,3.40
2019-04-22T07:12:02.165Z,3.93
2019-04-22T07:14:28.605Z,3.80
2019-04-22T07:17:02.159Z,4.50
2019-04-22T07:19:37.154Z,3.80
2019-04-22T07:22:11.104Z,4.07
2019-04-22T07:24:47.797Z,3.47
2019-04-22T07:27:14.528Z,3.37
2019-04-22T07:29:58.138Z,4.07
2019-04-22T07:32:33.350Z,3.37
2019-04-22T07:35:03.747Z,3.47
2019-04-22T07:40:02.590Z,3.53
2019-04-22T07:42:36.471Z,4.63
2019-04-22T07:45:10.296Z,4.10
2019-04-22T07:47:52.187Z,3.90
2019-04-22T07:50:37.422Z,4.83
2019-04-22T07:52:52.147Z,4.63
2019-04-22T07:55:27.757Z,4.20
2019-04-22T07:58:05.069Z,4.20
2019-04-22T08:03:14.799Z,4.20
2019-04-22T08:05:52.157Z,5.10
2019-04-22T08:08:27.580Z,4.57
2019-04-22T08:10:48.409Z,5.33
2019-04-22T08:13:25.331Z,4.77
2019-04-22T08:15:58.861Z,5.40
2019-04-22T08:21:07.463Z,5.23
2019-04-22T08:26:05.504Z,5.30
2019-04-22T08:28:46.877Z,5.37
2019-04-22T08:31:27.050Z,5.97
2019-04-22T08:34:12.069Z,5.10
2019-04-22T08:36:29.185Z,5.57
2019-04-22T08:39:16.765Z,4.67
2019-04-22T08:41:32.117Z,4.60
2019-04-22T08:46:40.046Z,4.70
2019-04-22T08:49:10.244Z,5.03
2019-04-22T08:51:46.085Z,4.03
2019-04-22T08:54:19.729Z,5.00
2019-04-22T08:56:49.409Z,6.10
2019-04-22T08:59:21.803Z,4.00
2019-04-22T09:02:07.756Z,4.00
2019-04-22T09:04:34.706Z,4.30
2019-04-22T09:09:44.523Z,4.67
2019-04-22T09:12:20.042Z,4.27
2019-04-22T09:14:55.987Z,4.03
2019-04-22T09:17:22.779Z,3.73
2019-04-22T09:19:58.558Z,4.33
2019-04-22T09:22:26.209Z,3.90
2019-04-22T09:24:57.330Z,3.73
2019-04-22T09:27:40.011Z,4.33
2019-04-22T09:30:14.387Z,3.63
2019-04-22T09:32:44.779Z,4.70
2019-04-22T09:35:16.182Z,4.43
2019-04-22T09:40:35.144Z,3.93
2019-04-22T09:43:17.378Z,3.80
2019-04-22T09:49:55.253Z,4.47
2019-04-22T09:52:20.553Z,4.60
2019-04-22T09:54:59.879Z,4.00
2019-04-22T10:02:42.719Z,3.20
2019-04-22T10:05:15.006Z,3.50
2019-04-22T10:07:50.814Z,3.13
2019-04-22T10:12:46.769Z,3.00
2019-04-22T10:15:25.138Z,4.00
2019-04-22T10:17:56.541Z,4.20
2019-04-22T10:20:31.170Z,3.67
2019-04-22T10:23:05.884Z,3.50
2019-04-22T10:25:36.410Z,3.37
2019-04-22T10:28:15.551Z,3.00
2019-04-22T10:30:46.851Z,3.10
2019-04-22T10:33:19.808Z,3.33
2019-04-22T10:35:30.651Z,3.30
2019-04-22T10:38:01.447Z,3.67
2019-04-22T10:40:36.315Z,3.30
2019-04-22T10:43:11.385Z,2.80
2019-04-22T10:45:44.005Z,3.20
2019-04-22T10:48:16.495Z,2.43
2019-04-22T10:50:50.640Z,3.13
2019-04-22T10:53:23.677Z,3.20
2019-04-22T10:55:56.394Z,3.07
2019-04-22T10:58:28.834Z,3.20
2019-04-22T11:01:00.675Z,2.97
2019-04-22T11:03:33.218Z,2.80
2019-04-22T11:06:05.672Z,3.40
2019-04-22T11:08:44.449Z,3.30
2019-04-22T11:11:26.221Z,3.63
2019-04-22T11:13:45.901Z,3.23
2019-04-22T11:16:17.529Z,3.10
2019-04-22T11:18:49.626Z,3.10
2019-04-22T11:21:21.322Z,3.07
2019-04-22T11:23:54.470Z,3.53
2019-04-22T11:26:26.163Z,3.20
2019-04-22T11:28:59.253Z,3.30
2019-04-22T11:31:32.440Z,3.07
2019-04-22T11:34:04.213Z,3.27
2019-04-22T11:36:37.069Z,3.50
2019-04-22T11:39:11.624Z,2.80
2019-04-22T11:41:44.211Z,3.27
2019-04-22T11:44:17.188Z,3.20
2019-04-22T11:46:49.542Z,3.20
2019-04-22T11:49:31.919Z,3.30
2019-04-22T11:52:01.548Z,3.40
2019-04-22T11:54:33.088Z,3.40
2019-04-22T11:57:05.477Z,2.90
2019-04-22T11:59:38.226Z,2.90
2019-04-22T12:02:16.092Z,4.07
2019-04-22T12:04:47.881Z,2.97
2019-04-22T12:07:21.202Z,3.23
2019-04-22T12:09:53.405Z,3.23
2019-04-22T12:12:25.607Z,3.73
2019-04-22T12:14:58.761Z,2.57
2019-04-22T12:17:31.990Z,3.10
2019-04-22T12:20:08.267Z,2.90
2019-04-22T12:22:38.861Z,3.50
2019-04-22T12:25:12.546Z,2.67
2019-04-22T12:27:45.269Z,3.33
2019-04-22T12:30:19.613Z,3.47
2019-04-22T12:32:52.683Z,3.77
2019-04-22T12:35:24.539Z,2.73
2019-04-22T12:38:02.521Z,3.03
2019-04-22T12:40:41.191Z,3.30
2019-04-22T12:43:04.777Z,3.80
2019-04-22T12:45:37.006Z,3.73
2019-04-22T12:48:10.217Z,3.10
2019-04-22T12:50:44.459Z,3.87
2019-04-22T12:53:19.767Z,3.80
2019-04-22T12:55:50.299Z,3.70
2019-04-22T12:58:23.549Z,3.20
2019-04-22T13:00:55.216Z,3.33
2019-04-22T13:03:28.475Z,3.53
2019-04-22T13:06:01.590Z,3.53
2019-04-22T13:08:33.937Z,3.60
2019-04-22T13:11:11.707Z,3.23
2019-04-22T13:13:40.771Z,3.07
2019-04-22T13:16:13.391Z,3.20
2019-04-22T13:18:53.074Z,2.77
2019-04-22T13:21:18.840Z,3.30
2019-04-22T13:23:53.128Z,3.67
2019-04-22T13:26:27.156Z,3.10
2019-04-22T13:29:03.218Z,3.20
2019-04-22T13:31:34.980Z,2.50
2019-04-22T13:34:13.303Z,3.07
2019-04-22T13:36:43.602Z,2.50
2019-04-22T13:39:14.371Z,3.33
2019-04-22T13:41:50.454Z,4.43
2019-04-22T13:44:19.192Z,3.30
2019-04-22T13:47:11.630Z,3.13
2019-04-22T13:49:59.041Z,3.00
2019-04-22T13:54:06.515Z,2.70
2019-04-22T13:54:57.938Z,3.20
2019-04-22T13:57:24.874Z,3.07
2019-04-22T13:59:42.853Z,2.67
2019-04-22T14:02:28.703Z,2.60
2019-04-22T14:05:00.990Z,2.33
2019-04-22T14:07:32.917Z,2.73
2019-04-22T14:10:06.497Z,2.93
2019-04-22T14:12:39.117Z,2.63
2019-04-22T14:15:11.756Z,2.80
2019-04-22T14:17:50.381Z,2.47
2019-04-22T14:20:25.920Z,2.57
2019-04-22T14:22:57.090Z,2.53
2019-04-22T14:25:28.704Z,3.10
2019-04-22T14:28:07.417Z,2.57
2019-04-22T14:30:34.683Z,3.10
2019-04-22T14:33:06.798Z,2.93
2019-04-22T14:35:39.768Z,2.77
2019-04-22T14:38:12.314Z,2.60
2019-04-22T14:40:45.461Z,3.17
2019-04-22T14:43:55.181Z,2.60
2019-04-22T14:48:49.926Z,2.60
2019-04-22T14:51:19.094Z,3.43
2019-04-22T14:53:45.925Z,2.77
2019-04-22T14:56:04.376Z,2.60
2019-04-22T14:58:37.364Z,2.60
2019-04-22T15:01:11.063Z,2.67
2019-04-22T15:03:44.811Z,2.17
2019-04-22T15:06:18.155Z,2.83
2019-04-22T15:08:51.232Z,2.90
2019-04-22T15:11:23.305Z,3.23
2019-04-22T15:13:54.875Z,2.87
2019-04-22T15:16:42.316Z,3.10
2019-04-22T15:19:27.572Z,3.07
2019-04-22T15:22:00.701Z,3.00
2019-04-22T15:24:32.294Z,3.07
2019-04-22T15:27:04.740Z,3.10
2019-04-22T15:29:36.373Z,2.80
2019-04-22T15:32:09.262Z,2.90
2019-04-22T15:34:41.551Z,3.00
2019-04-22T15:37:13.957Z,3.10
2019-04-22T15:39:45.841Z,2.40
2019-04-22T15:42:25.291Z,2.60
2019-04-22T15:44:51.674Z,2.90
2019-04-22T15:47:24.813Z,2.27
2019-04-22T15:49:58.236Z,2.50
2019-04-22T15:52:36.582Z,2.10
2019-04-22T15:55:04.710Z,2.20
2019-04-22T15:57:38.032Z,2.43
2019-04-22T16:00:25.520Z,1.90
2019-04-22T16:02:45.642Z,2.50
2019-04-22T16:05:17.495Z,2.30
2019-04-22T16:07:50.407Z,2.00
2019-04-22T16:10:23.942Z,2.53
2019-04-22T16:13:05.536Z,2.10
2019-04-22T16:15:28.943Z,2.00
2019-04-22T16:18:02.881Z,2.27
2019-04-22T16:20:34.340Z,1.80
2019-04-22T16:23:17.090Z,2.60
2019-04-22T16:25:59.105Z,2.00
2019-04-22T16:28:31.339Z,1.60
2019-04-22T16:31:03.827Z,2.07
2019-04-22T16:33:39.304Z,1.70
2019-04-22T16:36:09.170Z,2.47
2019-04-22T16:38:42.759Z,1.77
2019-04-22T16:41:14.811Z,2.20
2019-04-22T16:43:46.771Z,1.70
2019-04-22T16:46:19.416Z,1.97
2019-04-22T16:48:51.775Z,1.80
2019-04-22T16:51:24.409Z,1.90
2019-04-22T16:53:56.221Z,1.77
2019-04-22T16:56:29.659Z,2.43
2019-04-22T16:59:01.372Z,1.70
2019-04-22T17:01:58.758Z,1.77
2019-04-22T17:04:51.680Z,1.43
2019-04-22T17:07:24.469Z,2.00
2019-04-22T17:09:57.588Z,2.40
2019-04-22T17:12:43.720Z,2.70
2019-04-22T17:15:08.084Z,2.20
2019-04-22T17:17:37.403Z,2.30
2019-04-22T17:20:09.426Z,2.90
2019-04-22T17:22:41.869Z,2.23
2019-04-22T17:25:14.153Z,2.27
2019-04-22T17:27:47.517Z,2.07
2019-04-22T17:30:20.205Z,2.30
2019-04-22T17:32:52.454Z,1.93
2019-04-22T17:35:26.199Z,1.77
2019-04-22T17:38:08.732Z,2.73
2019-04-22T17:40:49.586Z,2.37
2019-04-22T17:43:36.018Z,1.90
2019-04-22T17:46:07.097Z,2.60
2019-04-22T17:49:04.334Z,2.20
2019-04-22T17:51:36.663Z,2.83
2019-04-22T17:54:12.077Z,2.37
2019-04-22T17:56:43.403Z,2.33
2019-04-22T17:59:22.880Z,2.53
2019-04-22T18:01:51.529Z,2.33
2019-04-22T18:04:06.383Z,2.70
2019-04-22T18:07:05.439Z,2.90
2019-04-22T18:09:54.767Z,2.77
2019-04-22T18:12:11.811Z,2.90
2019-04-22T18:14:47.993Z,2.90
2019-04-22T18:17:17.304Z,3.37
2019-04-22T18:19:46.257Z,3.07
2019-04-22T18:22:12.293Z,3.23
2019-04-22T18:24:47.449Z,3.20
2019-04-22T18:27:38.920Z,3.80
2019-04-22T18:29:55.577Z,3.70
2019-04-22T18:32:26.078Z,16.00
2019-04-22T18:34:52.931Z,10.67
2019-04-22T18:37:40.056Z,11.40
2019-04-22T18:40:14.885Z,17.83
2019-04-22T18:42:49.369Z,9.27
2019-04-22T18:45:35.561Z,8.77
2019-04-22T18:47:47.299Z,7.17
2019-04-22T18:50:35.363Z,9.07
2019-04-22T18:53:28.660Z,10.40
2019-04-22T18:56:16.585Z,7.07
2019-04-22T18:58:39.288Z,4.97
2019-04-22T19:00:59.664Z,3.43
2019-04-22T19:03:42.737Z,3.17
2019-04-22T19:06:38.307Z,3.13
2019-04-22T19:09:08.704Z,3.40
2019-04-22T19:11:39.011Z,2.87
2019-04-22T19:16:43.349Z,2.90
2019-04-22T19:21:47.688Z,3.17
2019-04-22T19:24:14.912Z,2.63
2019-04-22T19:29:31.638Z,3.83
2019-04-22T19:32:04.050Z,3.63
2019-04-22T19:34:32.113Z,3.27
2019-04-22T19:37:07.324Z,3.27
2019-04-22T19:39:40.951Z,3.10
2019-04-22T19:42:25.110Z,3.13
2019-04-22T19:44:48.329Z,3.27
2019-04-22T19:47:30.304Z,3.73
2019-04-22T19:49:58.101Z,5.00
2019-04-22T19:52:28.800Z,3.17
2019-04-22T19:55:10.983Z,3.47
2019-04-22T19:57:34.519Z,3.13
2019-04-22T20:00:19.073Z,2.63
2019-04-22T20:03:21.782Z,3.30
2019-04-22T20:06:09.872Z,2.60
2019-04-22T20:08:45.972Z,3.00
2019-04-22T20:11:17.042Z,3.40
2019-04-22T20:13:47.696Z,2.70
2019-04-22T20:16:20.716Z,2.90
2019-04-22T20:19:01.457Z,2.80
2019-04-22T20:21:28.305Z,2.50
2019-04-22T20:23:54.890Z,3.03
2019-04-22T20:26:44.172Z,3.17
2019-04-22T20:29:11.762Z,3.00
2019-04-22T20:31:48.561Z,3.07
2019-04-22T20:34:21.538Z,3.00
2019-04-22T20:37:03.704Z,3.50
2019-04-22T20:39:36.729Z,3.23
2019-04-22T20:42:16.445Z,2.90
2019-04-22T20:44:39.698Z,3.13
2019-04-22T20:47:09.132Z,3.50
2019-04-22T20:49:44.518Z,3.47
2019-04-22T20:52:26.181Z,2.57
2019-04-22T20:54:49.355Z,3.33
2019-04-22T20:57:25.450Z,3.73
2019-04-22T20:59:51.085Z,3.53
2019-04-22T21:02:25.144Z,3.57
2019-04-22T21:04:53.699Z,3.33
2019-04-22T21:07:31.454Z,3.70
2019-04-22T21:10:09.144Z,3.57
2019-04-22T21:12:36.613Z,3.60
2019-04-22T21:15:20.739Z,4.27
2019-04-22T21:17:54.454Z,4.00
2019-04-22T21:20:43.387Z,3.73
2019-04-22T21:23:02.685Z,3.70
2019-04-22T21:25:26.305Z,5.03
2019-04-22T21:28:18.119Z,3.90
2019-04-22T21:30:45.213Z,3.50
2019-04-22T21:33:13.845Z,4.30
2019-04-22T21:36:03.103Z,3.30
2019-04-22T21:38:28.063Z,4.10
2019-04-22T21:40:58.344Z,4.40
2019-04-22T21:43:35.860Z,3.90
2019-04-22T21:46:08.793Z,3.80
2019-04-22T21:48:44.377Z,4.57
2019-04-22T21:51:22.630Z,4.77
2019-04-22T21:53:50.365Z,4.10
2019-04-22T21:56:38.136Z,4.50
2019-04-22T21:59:01.618Z,4.77
2019-04-22T22:01:50.720Z,3.70
2019-04-22T22:04:18.799Z,4.13
2019-04-22T22:06:40.296Z,5.00
2019-04-22T22:09:22.866Z,5.57
2019-04-22T22:11:52.797Z,4.60
2019-04-22T22:14:27.610Z,4.57
2019-04-22T22:16:53.337Z,4.90
2019-04-22T22:19:38.182Z,4.40
2019-04-22T22:22:25.418Z,4.50
2019-04-22T22:24:46.321Z,4.40
2019-04-22T22:27:18.817Z,4.73
2019-04-22T22:29:57.076Z,4.30
2019-04-22T22:32:27.455Z,5.00
2019-04-22T22:34:58.702Z,4.80
2019-04-22T22:37:16.916Z,4.20
2019-04-22T22:39:51.299Z,4.70
2019-04-22T22:42:22.229Z,4.67
2019-04-22T22:44:59.139Z,4.43
2019-04-22T22:47:39.322Z,4.90
2019-04-22T22:50:17.278Z,4.67
2019-04-22T22:53:01.758Z,4.10
2019-04-22T22:55:21.769Z,5.10
2019-04-22T22:57:58.458Z,5.00
2019-04-22T23:00:33.919Z,5.20
2019-04-22T23:03:36.671Z,4.30
2019-04-22T23:05:45.481Z,4.93
2019-04-22T23:08:20.439Z,5.17
2019-04-22T23:10:56.961Z,4.90
2019-04-22T23:13:25.816Z,4.57
2019-04-22T23:15:50.170Z,4.80
2019-04-22T23:18:07.847Z,5.53
2019-04-22T23:20:43.964Z,5.40
2019-04-22T23:23:33.425Z,4.97
2019-04-22T23:26:06.811Z,5.20
2019-04-22T23:28:50.033Z,5.00
2019-04-22T23:31:23.762Z,5.27
2019-04-22T23:34:09.222Z,4.90
2019-04-22T23:36:55.818Z,4.40
2019-04-22T23:39:42.017Z,5.17
2019-04-22T23:42:12.911Z,5.63
2019-04-22T23:44:41.952Z,5.43
2019-04-22T23:47:23.910Z,5.53
2019-04-22T23:50:05.527Z,5.40
2019-04-22T23:52:43.194Z,5.07
2019-04-22T23:55:17.742Z,5.37
2019-04-22T23:57:50.549Z,5.57
